Time;durP1;ratioP1;P1;durP2;ratioP2;P2;SDS_P1;SDS_P2;PMS_P1;PMS_P2;Temp;Humidity;BMP_temperature;BMP_pressure;BME280_temperature;BME280_humidity;BME280_pressure;Samples;Min_cycle;Max_cycle;Signal;HPM_P1;HPM_P2
2024/04/19 00:01:42;;;;;;;3.88;2.38;;;;;;;8.95;82.52;100415.06;5419186;26;20024;-76
2024/04/19 00:04:46;;;;;;;4.20;2.38;;;;;;;8.96;82.25;100412.25;5397459;26;20019;-76
2024/04/19 00:07:51;;;;;;;3.97;2.63;;;;;;;8.96;82.11;100414.09;5419396;26;20462;-76
2024/04/19 00:10:56;;;;;;;3.50;2.53;;;;;;;9.11;81.73;100410.16;5397350;26;20024;-75
2024/04/19 00:14:01;;;;;;;5.38;2.33;;;;;;;9.22;81.34;100412.81;5418820;26;20019;-76
2024/04/19 00:17:05;;;;;;;3.47;2.40;;;;;;;8.98;82.23;100407.63;5418967;26;20019;-75
2024/04/19 00:20:09;;;;;;;3.55;2.65;;;;;;;9.14;81.79;100408.09;5423496;26;20027;-76
2024/04/19 00:23:14;;;;;;;6.60;2.33;;;;;;;8.94;81.53;100416.00;5453473;26;20015;-75
2024/04/19 00:26:21;;;;;;;3.60;2.55;;;;;;;8.58;83.88;100416.25;5454685;26;20023;-76
2024/04/19 00:29:26;;;;;;;3.63;2.70;;;;;;;8.30;84.65;100412.22;5454688;26;20023;-76
2024/04/19 00:32:31;;;;;;;4.55;2.60;;;;;;;8.27;84.98;100413.28;5453633;26;20022;-76
2024/04/19 00:35:36;;;;;;;6.65;2.97;;;;;;;8.52;85.01;100416.75;5454646;26;20031;-76
2024/04/19 00:38:40;;;;;;;4.30;2.88;;;;;;;8.39;85.45;100416.88;5454442;26;20023;-76
2024/04/19 00:41:45;;;;;;;5.53;3.28;;;;;;;8.01;86.91;100418.91;5453828;26;20022;-76
2024/04/19 00:44:50;;;;;;;4.32;3.20;;;;;;;8.14;87.12;100414.34;5454356;26;20023;-76
2024/04/19 00:47:56;;;;;;;5.72;3.58;;;;;;;7.94;87.58;100413.19;5453322;26;20023;-76
2024/04/19 00:51:01;;;;;;;6.40;3.72;;;;;;;8.44;85.67;100420.03;5450566;26;20031;-76
2024/04/19 00:54:07;;;;;;;4.82;3.63;;;;;;;8.06;86.54;100419.41;5453140;26;20027;-76
2024/04/19 00:57:11;;;;;;;3.70;3.17;;;;;;;7.96;88.16;100416.59;5454304;26;20027;-76
2024/04/19 01:00:16;;;;;;;4.32;3.15;;;;;;;7.74;88.37;100419.19;5453186;26;20023;-76
2024/04/19 01:03:20;;;;;;;9.65;3.92;;;;;;;7.83;87.74;100423.81;5453122;26;20137;-76
2024/04/19 01:06:25;;;;;;;4.07;3.47;;;;;;;7.92;87.10;100424.97;5454171;26;20026;-76
2024/04/19 01:09:30;;;;;;;5.38;3.97;;;;;;;7.90;87.14;100429.59;5454111;26;20454;-76
2024/04/19 01:12:35;;;;;;;4.55;3.65;;;;;;;7.83;87.52;100431.84;5454142;26;20019;-76
2024/04/19 01:15:40;;;;;;;4.95;3.80;;;;;;;7.84;87.42;100430.88;5454175;26;20023;-76
2024/04/19 01:18:45;;;;;;;4.82;3.80;;;;;;;8.18;86.02;100431.84;5454135;26;20019;-76
2024/04/19 01:21:49;;;;;;;5.45;4.13;;;;;;;7.88;86.90;100430.53;5454136;26;20019;-76
2024/04/19 01:24:53;;;;;;;5.00;3.92;;;;;;;8.26;86.14;100433.00;5453039;26;20022;-76
2024/04/19 01:27:58;;;;;;;4.97;4.03;;;;;;;8.10;85.83;100423.56;5453143;26;20023;-76
2024/04/19 01:31:03;;;;;;;4.82;3.55;;;;;;;8.28;85.72;100425.72;5452803;26;20019;-77
2024/04/19 01:34:07;;;;;;;5.15;3.83;;;;;;;7.99;86.55;100428.88;5454059;26;20022;-77
2024/04/19 01:37:12;;;;;;;8.18;3.78;;;;;;;7.96;86.65;100435.31;5453779;26;20364;-75
2024/04/19 01:40:16;;;;;;;5.03;3.90;;;;;;;7.89;86.88;100431.41;5453961;26;20026;-77
2024/04/19 01:43:21;;;;;;;7.60;3.78;;;;;;;7.70;88.54;100433.75;5452026;26;20341;-76
2024/04/19 01:46:25;;;;;;;4.50;3.83;;;;;;;8.00;87.07;100428.75;5432263;26;20481;-76
2024/04/19 01:49:30;;;;;;;5.10;3.80;;;;;;;7.95;87.10;100430.91;5453891;26;20018;-76
2024/04/19 01:52:35;;;;;;;5.03;3.85;;;;;;;7.86;86.52;100428.94;5453710;26;20022;-75
2024/04/19 01:55:39;;;;;;;5.07;4.18;;;;;;;7.86;86.18;100437.81;5452586;26;20022;-75
2024/04/19 01:58:44;;;;;;;5.32;4.30;;;;;;;7.67;86.55;100445.50;5453514;26;20026;-75
2024/04/19 02:01:48;;;;;;;7.13;4.53;;;;;;;7.47;88.12;100445.28;5452036;26;20022;-77
2024/04/19 02:04:53;;;;;;;7.13;4.45;;;;;;;7.54;87.17;100449.19;5453587;26;20365;-77
2024/04/19 02:22:16;;;;;;;8.13;4.57;;;;;;;7.44;88.22;100450.84;5416872;26;20024;-75
2024/04/19 02:25:23;;;;;;;6.50;4.72;;;;;;;7.28;88.92;100460.94;5416996;26;20322;-75
2024/04/19 02:31:51;;;;;;;6.55;4.80;;;;;;;7.28;88.79;100460.94;5381518;26;20028;-75
2024/04/19 02:34:56;;;;;;;5.95;4.43;;;;;;;7.36;88.52;100459.41;5381446;26;20024;-75
2024/04/19 02:38:01;;;;;;;5.97;4.60;;;;;;;7.43;88.21;100455.31;5381547;26;20613;-75
2024/04/19 02:41:06;;;;;;;5.82;4.53;;;;;;;7.41;87.92;100459.06;5360114;26;20024;-75
2024/04/19 02:44:10;;;;;;;6.82;5.03;;;;;;;7.26;88.05;100445.00;5381515;26;20024;-75
2024/04/19 02:47:14;;;;;;;6.50;5.10;;;;;;;7.35;88.35;100446.19;5381620;26;20032;-77
2024/04/19 02:50:19;;;;;;;8.02;5.07;;;;;;;7.39;87.25;100445.84;5381393;26;20028;-76
2024/04/19 02:53:24;;;;;;;8.35;5.28;;;;;;;7.27;87.23;100445.88;5381417;26;20020;-75
2024/04/19 02:56:29;;;;;;;7.00;5.07;;;;;;;7.41;87.66;100441.22;5380583;26;20020;-76
2024/04/19 02:59:34;;;;;;;7.75;5.30;;;;;;;7.53;86.48;100442.16;5382075;26;20471;-77
2024/04/19 03:02:38;;;;;;;7.57;5.30;;;;;;;7.45;86.40;100439.19;5381105;26;20362;-76
2024/04/19 03:05:44;;;;;;;5.90;4.88;;;;;;;7.62;85.65;100438.81;5380996;26;20451;-76
2024/04/19 03:08:48;;;;;;;7.72;5.65;;;;;;;7.63;86.06;100435.16;5381071;26;20028;-76
2024/04/19 03:11:54;;;;;;;6.70;5.30;;;;;;;7.69;84.85;100437.38;5359589;26;20024;-76
2024/04/19 03:14:58;;;;;;;7.20;5.82;;;;;;;7.19;87.67;100438.41;5380907;26;20024;-76
2024/04/19 03:18:07;;;;;;;8.55;5.82;;;;;;;7.09;87.87;100435.56;5381237;26;20020;-76
2024/04/19 03:21:11;;;;;;;6.38;5.15;;;;;;;6.99;87.80;100437.19;5407443;26;20020;-76
2024/04/19 03:24:16;;;;;;;9.60;5.85;;;;;;;7.10;86.84;100437.28;5415995;26;20019;-76
2024/04/19 03:27:21;;;;;;;9.32;6.03;;;;;;;7.21;86.53;100441.81;5416015;26;20024;-76
2024/04/19 03:30:36;;;;;;;7.35;5.75;;;;;;;7.60;85.51;100440.75;5447692;26;20026;-76
2024/04/19 03:33:40;;;;;;;8.40;6.05;;;;;;;7.33;85.77;100426.75;5452050;26;20353;-76
2024/04/19 03:36:48;;;;;;;8.23;5.68;;;;;;;7.35;85.62;100428.34;5452236;26;20018;-76
2024/04/19 03:39:52;;;;;;;8.75;5.82;;;;;;;7.31;85.86;100439.38;5451981;26;20019;-76
2024/04/19 03:42:58;;;;;;;10.73;6.00;;;;;;;7.44;85.79;100432.13;5450615;26;20027;-76
2024/04/19 03:46:03;;;;;;;8.43;5.40;;;;;;;7.45;85.15;100445.41;5451932;26;20384;-76
2024/04/19 03:49:08;;;;;;;7.03;5.40;;;;;;;7.51;85.36;100428.91;5451843;26;20019;-76
2024/04/19 03:52:12;;;;;;;7.05;5.32;;;;;;;7.31;86.16;100436.69;5450643;26;20454;-76
2024/04/19 03:55:16;;;;;;;7.53;5.82;;;;;;;7.46;85.84;100444.41;5451653;26;20027;-77
2024/04/19 03:58:21;;;;;;;6.57;5.00;;;;;;;7.55;85.50;100440.22;5451974;26;20027;-76
2024/04/19 04:01:25;;;;;;;6.25;4.78;;;;;;;7.59;85.99;100447.03;5451598;26;20027;-76
2024/04/19 04:04:30;;;;;;;6.25;5.00;;;;;;;7.62;84.94;100457.50;5450797;26;20027;-76
2024/04/19 04:07:35;;;;;;;6.55;4.93;;;;;;;7.50;86.28;100458.41;5436205;26;20458;-76
2024/04/19 04:10:41;;;;;;;7.70;5.35;;;;;;;7.21;86.75;100453.34;5419184;26;20020;-77
2024/04/19 04:13:46;;;;;;;10.52;5.95;;;;;;;7.09;87.44;100454.25;5419341;26;20020;-76
2024/04/19 04:16:50;;;;;;;6.00;4.57;;;;;;;7.07;87.70;100458.00;5419106;26;20024;-76
2024/04/19 04:19:55;;;;;;;8.00;5.57;;;;;;;6.95;88.16;100467.72;5418827;26;20138;-76
2024/04/19 04:23:00;;;;;;;7.75;5.32;;;;;;;7.08;88.79;100473.06;5419155;26;20020;-76
2024/04/19 04:26:05;;;;;;;7.65;5.85;;;;;;;7.07;87.74;100469.53;5418841;26;20050;-76
2024/04/19 04:29:09;;;;;;;7.10;5.72;;;;;;;7.13;87.43;100474.41;5418762;26;20020;-76
2024/04/19 04:32:14;;;;;;;7.30;5.85;;;;;;;7.02;88.10;100463.66;5417780;26;20019;-76
2024/04/19 04:35:18;;;;;;;7.60;5.93;;;;;;;7.11;87.98;100468.31;5417714;26;20020;-76
2024/04/19 04:38:23;;;;;;;8.70;6.10;;;;;;;7.14;87.00;100473.47;5428985;26;20367;-76
2024/04/19 04:41:28;;;;;;;8.93;5.93;;;;;;;7.29;87.28;100470.63;5466080;26;20031;-76
2024/04/19 04:44:32;;;;;;;8.10;4.93;;;;;;;7.42;86.01;100471.47;5419006;26;20020;-76
2024/04/19 04:47:37;;;;;;;6.68;5.43;;;;;;;7.29;86.42;100474.16;5418619;26;20487;-76
2024/04/19 04:50:42;;;;;;;6.45;5.22;;;;;;;7.54;85.42;100468.75;5418696;26;20031;-74
2024/04/19 04:53:47;;;;;;;6.38;5.20;;;;;;;7.69;84.95;100474.78;5417254;26;20020;-75
2024/04/19 04:56:52;;;;;;;9.15;6.20;;;;;;;8.77;81.30;100475.38;5418506;26;20020;-76
2024/04/19 04:59:57;;;;;;;7.25;5.22;;;;;;;10.28;74.63;100484.38;5442712;26;20034;-76
2024/04/19 05:03:05;;;;;;;6.22;5.10;;;;;;;10.22;71.91;100487.59;5454351;26;20019;-76
2024/04/19 05:06:10;;;;;;;8.70;4.80;;;;;;;10.82;70.51;100484.16;5454169;26;20022;-76
2024/04/19 05:09:15;;;;;;;5.78;4.28;;;;;;;11.78;66.15;100485.41;5450555;26;20030;-76
2024/04/19 05:12:19;;;;;;;6.82;4.10;;;;;;;10.82;69.10;100485.03;5454216;26;20019;-75
2024/04/19 05:15:24;;;;;;;4.85;3.78;;;;;;;12.55;64.17;100490.78;5453454;26;20024;-76
2024/04/19 05:18:29;;;;;;;8.68;3.78;;;;;;;12.96;61.34;100485.88;5477576;26;20026;-76
2024/04/19 05:21:34;;;;;;;6.00;3.88;;;;;;;14.04;56.94;100497.72;5477376;26;20026;-76
2024/04/19 05:24:39;;;;;;;5.03;3.65;;;;;;;14.56;56.68;100496.03;5454174;26;20364;-76
2024/04/19 05:27:43;;;;;;;6.82;3.90;;;;;;;14.28;56.50;100502.47;5419789;26;20023;-77
2024/04/19 05:30:48;;;;;;;7.40;3.70;;;;;;;15.44;52.80;100501.13;5453870;26;20019;-77
2024/04/19 05:33:54;;;;;;;9.15;3.42;;;;;;;17.03;49.04;100494.47;5452710;26;20027;-77
2024/04/19 05:36:58;;;;;;;9.23;3.58;;;;;;;15.54;51.85;100501.03;5454113;26;20022;-77
2024/04/19 05:40:05;;;;;;;6.25;3.75;;;;;;;15.96;50.38;100499.16;5443975;26;20027;-76
2024/04/19 05:43:10;;;;;;;11.27;4.38;;;;;;;15.07;54.13;100507.84;5447592;26;20467;-75
2024/04/19 05:46:15;;;;;;;7.40;3.95;;;;;;;13.36;60.19;100501.78;5414392;26;20041;-74
2024/04/19 05:49:20;;;;;;;7.90;4.00;;;;;;;13.01;61.78;100507.84;5416667;26;20019;-75
2024/04/19 05:52:25;;;;;;;9.98;4.80;;;;;;;12.45;64.39;100512.34;5417148;26;20370;-74
2024/04/19 05:55:30;;;;;;;7.43;4.40;;;;;;;12.78;63.57;100508.34;5421433;26;20020;-80
2024/04/19 05:58:35;;;;;;;10.43;4.18;;;;;;;13.31;61.44;100506.78;5418135;26;20023;-80
2024/04/19 06:01:40;;;;;;;13.25;4.10;;;;;;;12.61;63.42;100503.69;5417978;26;20451;-83
2024/04/19 06:04:45;;;;;;;6.82;4.00;;;;;;;13.14;62.95;100504.00;5418055;26;20027;-76
2024/04/19 06:07:50;;;;;;;12.77;3.97;;;;;;;13.20;61.66;100504.28;5417888;26;20019;-77
2024/04/19 06:10:54;;;;;;;4.97;3.42;;;;;;;12.85;64.13;100506.75;5418137;26;20129;-74
2024/04/19 06:13:59;;;;;;;5.45;3.40;;;;;;;12.26;66.54;100515.03;5417820;26;20469;-73
2024/04/19 06:17:04;;;;;;;3.90;3.13;;;;;;;12.85;64.49;100510.31;5417599;26;20024;-82
2024/04/19 06:20:09;;;;;;;5.30;3.05;;;;;;;13.53;61.73;100508.22;5417347;26;20020;-79
2024/04/19 06:23:15;;;;;;;6.45;3.75;;;;;;;13.78;61.65;100509.34;5415552;26;20004;-76
2024/04/19 06:26:22;;;;;;;4.40;2.72;;;;;;;14.71;58.22;100513.38;5416975;26;20023;-76
2024/04/19 06:29:26;;;;;;;5.43;3.22;;;;;;;15.12;57.06;100508.22;5417181;26;20020;-76
2024/04/19 06:32:31;;;;;;;6.22;3.72;;;;;;;14.28;58.80;100521.38;5416946;26;20366;-76
2024/04/19 06:35:37;;;;;;;5.38;3.00;;;;;;;14.74;58.38;100521.13;5417355;26;20451;-76
2024/04/19 06:38:41;;;;;;;4.00;2.95;;;;;;;14.71;58.79;100524.19;5395997;26;20441;-76
2024/04/19 06:41:46;;;;;;;4.40;2.85;;;;;;;15.55;56.88;100525.22;5416850;26;20548;-76
2024/04/19 06:44:51;;;;;;;5.63;2.90;;;;;;;14.74;58.54;100526.53;5417014;26;20023;-76
2024/04/19 06:47:57;;;;;;;4.65;2.90;;;;;;;14.72;59.04;100523.16;5416842;26;20023;-76
2024/04/19 06:51:02;;;;;;;5.45;3.85;;;;;;;14.65;58.88;100532.03;5416915;26;20047;-76
2024/04/19 06:54:07;;;;;;;6.45;2.83;;;;;;;13.90;60.84;100533.28;5378207;26;20043;-76
2024/04/19 06:57:11;;;;;;;5.22;2.70;;;;;;;14.15;60.86;100537.09;5378004;26;20024;-75
2024/04/19 07:00:16;;;;;;;5.93;3.05;;;;;;;14.57;59.53;100534.66;5378219;26;20024;-75
2024/04/19 07:03:20;;;;;;;4.88;2.95;;;;;;;15.35;57.49;100547.25;5358241;26;20024;-77
2024/04/19 07:06:25;;;;;;;4.10;2.40;;;;;;;16.45;54.59;100539.84;5377798;26;20024;-76
2024/04/19 07:09:29;;;;;;;3.80;2.30;;;;;;;17.52;51.23;100536.75;5338362;26;20024;-75
2024/04/19 07:12:34;;;;;;;5.72;2.08;;;;;;;18.88;46.51;100536.13;5374435;26;20036;-76
2024/04/19 07:15:40;;;;;;;5.22;2.90;;;;;;;18.78;45.72;100530.94;5365997;26;20004;-76
2024/04/19 07:18:46;;;;;;;4.28;2.40;;;;;;;20.64;42.30;100526.78;5264478;27;20113;-74
2024/04/19 07:21:51;;;;;;;5.65;2.20;;;;;;;21.23;38.58;100526.50;5265017;27;20030;-75
2024/04/19 07:24:56;;;;;;;6.82;2.63;;;;;;;23.30;35.81;100521.03;5298490;27;20049;-76
2024/04/19 07:28:00;;;;;;;4.25;2.50;;;;;;;24.80;32.83;100513.25;5247773;27;20002;-79
2024/04/19 07:31:05;;;;;;;4.93;1.80;;;;;;;27.51;28.80;100515.88;5299138;26;20378;-75
2024/04/19 07:34:10;;;;;;;4.38;1.90;;;;;;;28.71;26.69;100512.06;5339767;26;20033;-74
2024/04/19 07:37:15;;;;;;;3.28;2.03;;;;;;;30.44;24.59;100508.84;5299303;26;20482;-74
2024/04/19 07:40:20;;;;;;;2.80;1.50;;;;;;;31.34;24.05;100519.06;5339543;26;20032;-74
2024/04/19 07:43:26;;;;;;;3.75;1.52;;;;;;;32.64;22.76;100516.13;5296352;26;20493;-74
2024/04/19 07:46:30;;;;;;;3.83;1.77;;;;;;;31.72;22.63;100516.03;5322406;26;20492;-75
2024/04/19 07:49:34;;;;;;;6.72;2.20;;;;;;;32.43;21.98;100510.75;5293014;26;20044;-75
2024/04/19 07:52:39;;;;;;;3.38;1.60;;;;;;;33.46;21.34;100515.03;5294548;27;20038;-75
2024/04/19 07:55:44;;;;;;;3.92;1.67;;;;;;;33.63;21.29;100515.56;5351546;26;20031;-75
2024/04/19 07:58:49;;;;;;;3.38;1.50;;;;;;;34.69;20.53;100514.31;5416494;26;20023;-75
2024/04/19 08:01:54;;;;;;;4.85;2.08;;;;;;;34.06;21.33;100514.06;5415864;26;20027;-76
2024/04/19 08:04:58;;;;;;;4.97;2.72;;;;;;;34.12;20.65;100509.31;5410885;26;20039;-76
2024/04/19 08:08:03;;;;;;;3.35;2.08;;;;;;;33.30;21.95;100505.03;5415712;26;20168;-76
2024/04/19 08:11:08;;;;;;;3.45;2.08;;;;;;;32.82;21.98;100505.56;5415650;26;20029;-76
2024/04/19 08:14:13;;;;;;;3.38;1.50;;;;;;;33.04;21.55;100508.94;5415516;26;20491;-75
2024/04/19 08:17:18;;;;;;;3.25;1.20;;;;;;;34.12;21.03;100512.09;5415455;26;20099;-76
2024/04/19 08:20:23;;;;;;;3.42;1.42;;;;;;;34.16;21.03;100505.66;5450750;26;20030;-75
2024/04/19 08:23:27;;;;;;;3.42;1.88;;;;;;;32.68;21.39;100506.13;5490864;26;20032;-76
2024/04/19 08:26:32;;;;;;;3.17;1.58;;;;;;;32.90;21.06;100516.97;5489757;26;20034;-76
2024/04/19 08:29:37;;;;;;;2.50;1.15;;;;;;;34.08;20.16;100509.03;5490858;26;20372;-75
2024/04/19 08:32:42;;;;;;;2.80;1.48;;;;;;;34.20;20.15;100503.13;5490203;26;20026;-75
2024/04/19 08:35:57;;;;;;;3.15;1.70;;;;;;;33.84;20.47;100496.84;5491127;26;20030;-75
2024/04/19 08:39:02;;;;;;;3.40;1.52;;;;;;;32.73;19.93;100506.13;5490802;26;20034;-74
2024/04/19 08:42:09;;;;;;;2.80;1.58;;;;;;;31.49;21.92;100497.84;5468100;26;20031;-74
2024/04/19 08:45:15;;;;;;;4.40;1.25;;;;;;;33.77;19.77;100488.81;5454292;26;20034;-76
2024/04/19 08:48:20;;;;;;;2.13;1.00;;;;;;;33.40;20.30;100489.16;5454045;26;20027;-76
2024/04/19 08:51:25;;;;;;;2.28;1.10;;;;;;;29.85;22.30;100484.84;5452879;26;20023;-76
2024/04/19 08:54:33;;;;;;;2.38;1.25;;;;;;;27.80;23.58;100489.22;5480234;26;20033;-74
2024/04/19 08:57:42;;;;;;;2.47;1.48;;;;;;;27.29;24.20;100485.28;5489138;26;20333;-75
2024/04/19 09:00:46;;;;;;;5.53;1.98;;;;;;;26.34;25.27;100478.19;5490717;26;20029;-74
2024/04/19 09:03:52;;;;;;;2.83;2.00;;;;;;;25.34;26.98;100481.47;5430144;26;20034;-75
2024/04/19 09:06:57;;;;;;;4.50;1.45;;;;;;;25.16;26.74;100474.91;5424637;26;20031;-75
2024/04/19 09:10:01;;;;;;;2.03;1.00;;;;;;;24.95;25.49;100466.22;5414812;26;20031;-75
2024/04/19 09:13:06;;;;;;;2.05;1.27;;;;;;;23.94;25.86;100462.66;5394254;26;20035;-75
2024/04/19 09:16:11;;;;;;;2.30;1.08;;;;;;;23.53;26.94;100456.75;5414457;26;20035;-75
2024/04/19 09:19:16;;;;;;;3.30;1.67;;;;;;;22.09;29.17;100459.47;5414549;26;20035;-75
2024/04/19 09:22:20;;;;;;;2.50;1.10;;;;;;;22.06;29.82;100457.97;5414562;26;20031;-75
2024/04/19 09:25:25;;;;;;;3.65;1.42;;;;;;;21.54;29.87;100455.00;5412967;26;20377;-75
2024/04/19 09:28:30;;;;;;;1.95;0.98;;;;;;;22.38;29.48;100459.94;5414570;26;20031;-75
2024/04/19 09:31:34;;;;;;;2.95;1.13;;;;;;;21.95;29.67;100453.09;5393987;26;20031;-75
2024/04/19 09:34:39;;;;;;;3.22;1.42;;;;;;;20.03;32.40;100454.63;5438077;26;20338;-75
2024/04/19 09:37:45;;;;;;;2.80;1.20;;;;;;;20.35;33.48;100450.56;5453173;26;20027;-76
2024/04/19 09:40:50;;;;;;;2.70;1.08;;;;;;;20.44;32.39;100451.28;5453503;26;20034;-75
2024/04/19 09:43:58;;;;;;;1.95;0.73;;;;;;;19.92;29.80;100446.94;5453202;26;20026;-74
2024/04/19 09:47:05;;;;;;;2.13;0.90;;;;;;;19.51;28.26;100445.81;5453133;26;20549;-74
2024/04/19 09:50:11;;;;;;;2.30;0.90;;;;;;;19.90;29.17;100442.75;5450252;26;20026;-75
2024/04/19 09:53:22;;;;;;;3.05;0.80;;;;;;;20.62;29.27;100436.13;5459446;26;20033;-75
2024/04/19 09:56:45;;;;;;;1.52;0.60;;;;;;;20.51;28.37;100446.72;5489708;26;20368;-75
2024/04/19 09:59:52;;;;;;;2.08;0.90;;;;;;;20.43;28.33;100441.41;5452116;26;20043;-76
2024/04/19 10:02:57;;;;;;;0.88;0.40;;;;;;;20.58;27.88;100439.44;5451985;26;20027;-75
2024/04/19 10:06:05;;;;;;;1.70;0.75;;;;;;;20.91;27.43;100442.44;5451418;26;20030;-75
2024/04/19 10:09:17;;;;;;;2.05;0.70;;;;;;;20.91;26.62;100435.06;5453024;26;20106;-75
2024/04/19 10:12:22;;;;;;;1.73;0.52;;;;;;;21.02;26.32;100433.69;5453845;26;20458;-75
2024/04/19 10:15:27;;;;;;;2.33;0.90;;;;;;;20.68;28.23;100424.44;5417096;26;20031;-74
2024/04/19 10:18:38;;;;;;;2.53;0.82;;;;;;;20.27;28.66;100414.44;5417158;26;20031;-75
2024/04/19 10:21:43;;;;;;;1.83;0.57;;;;;;;19.40;30.00;100409.03;5453337;26;20027;-75
2024/04/19 10:24:57;;;;;;;2.13;0.80;;;;;;;18.83;30.65;100408.00;5452747;26;20334;-76
2024/04/19 10:28:02;;;;;;;1.40;0.70;;;;;;;19.01;30.56;100399.47;5451448;26;20035;-75
2024/04/19 10:31:07;;;;;;;2.22;1.02;;;;;;;19.41;30.48;100402.56;5452892;26;20428;-75
2024/04/19 10:34:11;;;;;;;1.70;0.50;;;;;;;19.56;28.54;100383.47;5452444;26;20030;-76
2024/04/19 10:37:16;;;;;;;1.98;0.47;;;;;;;19.88;28.36;100380.25;5451261;26;20027;-76
2024/04/19 10:40:21;;;;;;;2.40;1.00;;;;;;;20.00;27.81;100378.69;5450747;26;20027;-75
2024/04/19 10:43:25;;;;;;;3.45;0.68;;;;;;;19.84;27.93;100367.22;5452553;26;20030;-76
2024/04/19 10:46:32;;;;;;;1.85;0.70;;;;;;;18.69;28.11;100360.69;5452687;26;20030;-76
2024/04/19 10:49:37;;;;;;;1.00;0.40;;;;;;;18.96;27.43;100352.94;5444534;26;20473;-77
2024/04/19 10:52:42;;;;;;;1.50;0.50;;;;;;;18.76;26.77;100349.94;5450165;26;20023;-75
2024/04/19 10:55:46;;;;;;;1.52;0.50;;;;;;;19.02;26.75;100346.72;5448586;26;20023;-76
2024/04/19 10:58:56;;;;;;;1.45;0.63;;;;;;;19.33;27.11;100336.47;5449827;26;20031;-75
2024/04/19 11:02:02;;;;;;;1.77;0.50;;;;;;;19.41;27.41;100333.63;5447783;26;20031;-75
2024/04/19 11:05:07;;;;;;;1.95;0.80;;;;;;;19.54;26.84;100328.34;5448333;26;20039;-74
2024/04/19 11:08:12;;;;;;;1.02;0.45;;;;;;;19.50;26.29;100316.16;5444394;26;20027;-76
2024/04/19 11:11:17;;;;;;;1.65;0.73;;;;;;;19.66;26.01;100320.50;5447863;26;20026;-77
2024/04/19 11:14:23;;;;;;;1.48;0.50;;;;;;;19.66;25.87;100307.72;5449012;26;20026;-77
2024/04/19 11:17:27;;;;;;;1.17;0.40;;;;;;;19.65;25.25;100308.78;5413478;26;20121;-76
2024/04/19 11:20:33;;;;;;;1.00;0.50;;;;;;;19.36;26.04;100296.09;5448510;26;20028;-75
2024/04/19 11:23:38;;;;;;;1.10;0.40;;;;;;;19.40;25.53;100294.72;5413333;26;20031;-77
2024/04/19 11:26:43;;;;;;;1.45;0.50;;;;;;;19.18;25.72;100292.09;5438951;26;20118;-75
2024/04/19 11:29:47;;;;;;;4.00;0.50;;;;;;;19.37;26.61;100277.91;5439310;26;20038;-76
2024/04/19 11:32:52;;;;;;;1.50;0.50;;;;;;;19.35;27.15;100274.50;5444209;26;20027;-75
2024/04/19 11:35:57;;;;;;;2.08;0.60;;;;;;;18.98;28.41;100272.81;5437775;26;20023;-75
2024/04/19 11:39:02;;;;;;;1.95;0.70;;;;;;;19.23;29.24;100267.88;5401160;26;20028;-81
2024/04/19 11:42:07;;;;;;;1.38;0.40;;;;;;;19.13;28.41;100260.03;5416848;26;20031;-77
2024/04/19 11:45:12;;;;;;;1.45;0.52;;;;;;;19.20;27.87;100263.66;5421094;26;20042;-76
2024/04/19 11:48:27;;;;;;;1.63;0.47;;;;;;;18.95;27.89;100265.03;5420550;26;20023;-77
2024/04/19 11:51:35;;;;;;;1.40;0.40;;;;;;;18.90;28.14;100256.59;5421337;26;20379;-77
2024/04/19 11:54:40;;;;;;;1.33;0.45;;;;;;;18.85;28.38;100250.88;5422768;26;20023;-77
2024/04/19 11:57:45;;;;;;;1.20;0.47;;;;;;;18.71;28.44;100249.03;5423145;26;20027;-78
2024/04/19 12:00:50;;;;;;;1.45;0.30;;;;;;;18.79;29.15;100247.03;5401786;26;20023;-77
2024/04/19 12:03:55;;;;;;;1.20;0.50;;;;;;;18.92;29.27;100231.91;5423537;26;20051;-77
2024/04/19 12:07:00;;;;;;;1.23;0.35;;;;;;;19.00;28.44;100239.97;5423297;26;20020;-77
2024/04/19 12:10:05;;;;;;;1.27;0.45;;;;;;;18.88;28.89;100236.06;5401536;26;20023;-78
2024/04/19 12:13:10;;;;;;;1.08;0.40;;;;;;;18.91;28.84;100222.94;5423102;26;20023;-78
2024/04/19 12:16:15;;;;;;;1.40;0.40;;;;;;;18.75;29.00;100221.28;5423351;26;20346;-77
2024/04/19 12:19:19;;;;;;;2.78;0.50;;;;;;;18.91;28.43;100216.66;5381199;26;20024;-78
2024/04/19 12:22:25;;;;;;;1.98;0.50;;;;;;;19.04;28.60;100224.94;5401067;26;20028;-77
2024/04/19 12:25:30;;;;;;;1.42;0.30;;;;;;;18.72;28.74;100212.66;5422767;26;20020;-77
2024/04/19 12:28:34;;;;;;;2.60;0.52;;;;;;;18.60;29.30;100201.41;5397796;26;20142;-77
2024/04/19 12:31:39;;;;;;;1.13;0.50;;;;;;;18.74;28.92;100211.41;5397257;26;20467;-77
2024/04/19 12:34:44;;;;;;;1.40;0.45;;;;;;;18.48;28.62;100199.38;5405288;26;20035;-77
2024/04/19 12:37:49;;;;;;;3.88;0.90;;;;;;;18.66;28.34;100184.38;5395977;26;20040;-75
2024/04/19 12:40:54;;;;;;;3.97;0.68;;;;;;;18.78;29.23;100185.53;5389764;26;20467;-76
2024/04/19 12:43:59;;;;;;;1.88;0.50;;;;;;;18.90;28.05;100166.84;5392334;26;20375;-76
2024/04/19 12:47:04;;;;;;;2.00;0.40;;;;;;;19.04;28.67;100165.94;5396308;26;20036;-75
2024/04/19 12:50:09;;;;;;;1.10;0.40;;;;;;;18.89;28.57;100162.41;5390985;26;20466;-76
2024/04/19 12:53:13;;;;;;;1.15;0.40;;;;;;;18.78;28.41;100160.22;5417560;26;20031;-75
2024/04/19 12:56:18;;;;;;;1.52;0.45;;;;;;;18.75;27.74;100147.00;5405831;26;20059;-76
2024/04/19 12:59:23;;;;;;;1.27;0.40;;;;;;;18.88;28.05;100143.59;5395847;26;20031;-75
2024/04/19 13:02:28;;;;;;;1.10;0.30;;;;;;;18.93;28.94;100122.94;5395342;26;20023;-76
2024/04/19 13:05:33;;;;;;;1.20;0.30;;;;;;;18.94;27.35;100113.72;5388172;26;20037;-76
2024/04/19 13:08:38;;;;;;;1.35;0.50;;;;;;;19.13;26.41;100113.09;5387684;26;20024;-75
2024/04/19 13:11:43;;;;;;;0.68;0.25;;;;;;;19.18;26.00;100107.06;5382654;26;20024;-76
2024/04/19 13:14:48;;;;;;;1.23;0.50;;;;;;;19.01;26.17;100101.03;5361484;26;20367;-76
2024/04/19 13:17:53;;;;;;;1.20;0.45;;;;;;;19.18;28.95;100088.00;5383268;26;20043;-76
2024/04/19 13:20:58;;;;;;;1.27;0.40;;;;;;;19.21;28.06;100084.88;5410099;26;20028;-75
2024/04/19 13:24:03;;;;;;;1.25;0.38;;;;;;;19.40;26.42;100076.06;5461541;26;20022;-75
2024/04/19 13:27:08;;;;;;;1.00;0.32;;;;;;;19.43;26.35;100081.94;5460662;26;20034;-77
2024/04/19 13:30:13;;;;;;;1.13;0.30;;;;;;;19.47;26.01;100074.25;5450018;26;20031;-75
2024/04/19 13:33:18;;;;;;;5.15;0.45;;;;;;;19.57;26.36;100066.56;5417608;26;20372;-77
2024/04/19 13:36:22;;;;;;;1.58;0.52;;;;;;;19.57;26.44;100065.72;5416840;26;20478;-77
2024/04/19 13:39:28;;;;;;;1.40;0.50;;;;;;;19.53;25.23;100046.19;5417515;26;20031;-75
2024/04/19 13:42:33;;;;;;;1.75;0.40;;;;;;;19.37;24.91;100044.66;5417594;26;20063;-76
2024/04/19 13:45:39;;;;;;;1.23;0.50;;;;;;;19.28;25.20;100036.81;5416426;26;20466;-76
2024/04/19 13:48:44;;;;;;;1.13;0.30;;;;;;;19.33;25.99;100031.59;5417382;26;20031;-76
2024/04/19 13:51:49;;;;;;;1.75;0.47;;;;;;;19.42;26.43;100031.28;5416698;26;20035;-76
2024/04/19 13:54:54;;;;;;;1.70;0.38;;;;;;;19.49;26.16;100025.88;5445586;26;20039;-76
2024/04/19 13:57:59;;;;;;;1.48;0.40;;;;;;;19.52;25.69;100027.34;5453335;26;20030;-76
2024/04/19 14:01:03;;;;;;;0.90;0.35;;;;;;;19.45;25.81;100024.59;5452892;26;20433;-76
2024/04/19 14:04:08;;;;;;;4.10;0.50;;;;;;;19.58;25.59;100012.97;5453531;26;20035;-76
2024/04/19 14:07:12;;;;;;;0.68;0.30;;;;;;;19.44;25.77;100006.56;5483505;26;20026;-75
2024/04/19 14:10:17;;;;;;;1.02;0.50;;;;;;;19.60;25.98;99995.38;5489922;26;20026;-76
2024/04/19 14:13:22;;;;;;;1.83;0.60;;;;;;;19.70;25.70;99992.28;5489210;26;20030;-75
2024/04/19 14:16:28;;;;;;;1.80;0.43;;;;;;;19.58;25.24;99989.25;5489674;26;20026;-76
2024/04/19 14:19:33;;;;;;;1.65;0.50;;;;;;;19.32;25.92;99976.31;5489435;26;20038;-77
2024/04/19 14:22:38;;;;;;;1.00;0.50;;;;;;;19.52;26.64;99965.59;5467558;26;20441;-76
2024/04/19 14:25:42;;;;;;;1.52;0.47;;;;;;;19.56;27.91;99972.28;5475006;26;20034;-76
2024/04/19 14:28:49;;;;;;;4.20;0.90;;;;;;;19.77;30.12;99955.88;5453422;26;20031;-78
2024/04/19 14:31:57;;;;;;;3.10;0.40;;;;;;;19.79;26.29;99955.66;5453262;26;20034;-77
2024/04/19 14:35:02;;;;;;;0.93;0.40;;;;;;;19.69;26.01;99934.25;5452922;26;20030;-75
2024/04/19 14:38:07;;;;;;;1.17;0.60;;;;;;;19.75;25.44;99932.59;5452903;26;20385;-75
2024/04/19 14:41:12;;;;;;;1.40;0.45;;;;;;;19.65;25.50;99922.09;5461362;26;20031;-75
2024/04/19 14:44:17;;;;;;;1.60;0.55;;;;;;;19.64;25.31;99919.53;5440324;26;20034;-75